createdAt,value
2023-01-09T00:00:14.555Z,-0.83
2023-01-09T00:01:14.461Z,-0.83
2023-01-09T00:02:14.523Z,-1
2023-01-09T00:03:14.514Z,-1
2023-01-09T00:04:14.532Z,-0.83
2023-01-09T00:05:14.473Z,-0.83
2023-01-09T00:06:14.465Z,-1
2023-01-09T00:07:14.481Z,-1.28
2023-01-09T00:08:14.503Z,-0.83
2023-01-09T00:09:14.486Z,-0.83
2023-01-09T00:10:14.481Z,-0.67
2023-01-09T00:11:14.463Z,-1.11
2023-01-09T00:12:14.469Z,-0.83
2023-01-09T00:13:14.472Z,-0.67
2023-01-09T00:14:14.473Z,-0.56
2023-01-09T00:15:14.474Z,-0.56
2023-01-09T00:16:14.478Z,-0.56
2023-01-09T00:17:14.480Z,-0.67
2023-01-09T00:18:14.482Z,-0.56
2023-01-09T00:19:14.470Z,-0.56
2023-01-09T00:20:14.477Z,-0.56
2023-01-09T00:21:14.523Z,-0.67
2023-01-09T00:22:14.481Z,-0.39
2023-01-09T00:23:14.494Z,-0.39
2023-01-09T00:24:14.505Z,-0.67
2023-01-09T00:25:14.501Z,-0.67
2023-01-09T00:26:14.498Z,-0.56
2023-01-09T00:27:14.488Z,-0.28
2023-01-09T00:28:14.485Z,-0.17
2023-01-09T00:29:14.480Z,-0.83
2023-01-09T00:30:14.499Z,-0.39
2023-01-09T00:31:14.487Z,-0.56
2023-01-09T00:32:14.514Z,-0.39
2023-01-09T00:33:14.492Z,-0.39
2023-01-09T00:34:14.489Z,-0.39
2023-01-09T00:35:14.496Z,-0.39
2023-01-09T00:36:14.486Z,-0.39
2023-01-09T00:37:14.498Z,-0.28
2023-01-09T00:38:14.502Z,-0.17
2023-01-09T00:39:14.492Z,-0.28
2023-01-09T00:40:14.525Z,-0.39
2023-01-09T00:41:14.489Z,-0.39
2023-01-09T00:42:14.493Z,-0.28
2023-01-09T00:43:14.495Z,-0.67
2023-01-09T00:44:14.492Z,-0.39
2023-01-09T00:45:14.499Z,-0.39
2023-01-09T00:46:14.527Z,-1
2023-01-09T00:47:14.492Z,-0.67
2023-01-09T00:48:14.511Z,-0.83
2023-01-09T00:49:14.516Z,-0.83
2023-01-09T00:50:14.513Z,-1
2023-01-09T00:51:14.514Z,-0.83
2023-01-09T00:52:14.502Z,-1.11
2023-01-09T00:53:14.513Z,-0.83
2023-01-09T00:54:14.516Z,-0.67
2023-01-09T00:55:14.527Z,-0.67
2023-01-09T00:56:14.625Z,-0.67
2023-01-09T00:57:14.508Z,-0.39
2023-01-09T00:58:14.510Z,-0.56
2023-01-09T00:59:14.507Z,-0.56
2023-01-09T01:00:14.508Z,-0.83
2023-01-09T01:01:14.665Z,-0.67
2023-01-09T01:02:14.826Z,-0.56
2023-01-09T01:03:14.520Z,-0.83
2023-01-09T01:04:14.506Z,-0.83
2023-01-09T01:05:14.533Z,-0.83
2023-01-09T01:06:14.522Z,-0.83
2023-01-09T01:07:14.511Z,-0.39
2023-01-09T01:08:14.520Z,-1
2023-01-09T01:09:14.519Z,-0.56
2023-01-09T01:10:14.517Z,-0.67
2023-01-09T01:11:14.518Z,-0.39
2023-01-09T01:12:14.540Z,-0.39
2023-01-09T01:13:14.519Z,-0.56
2023-01-09T01:14:14.530Z,-0.39
2023-01-09T01:15:14.521Z,-0.67
2023-01-09T01:16:14.528Z,-0.83
2023-01-09T01:17:14.522Z,-1
2023-01-09T01:18:14.523Z,-0.83
2023-01-09T01:19:14.532Z,-0.83
2023-01-09T01:20:14.517Z,-1
2023-01-09T01:21:14.527Z,-0.83
2023-01-09T01:22:14.535Z,-1
2023-01-09T01:23:14.536Z,-1
2023-01-09T01:24:14.526Z,-0.83
2023-01-09T01:25:14.533Z,-1.28
2023-01-09T01:26:14.535Z,-0.83
2023-01-09T01:27:14.545Z,-1
2023-01-09T01:28:14.552Z,-0.83
2023-01-09T01:29:14.528Z,-1.28
2023-01-09T01:30:14.537Z,-0.39
2023-01-09T01:31:14.539Z,-0.39
2023-01-09T01:32:14.534Z,-0.39
2023-01-09T01:33:14.538Z,-0.39
2023-01-09T01:34:14.547Z,-0.67
2023-01-09T01:35:14.540Z,-0.56
2023-01-09T01:36:14.541Z,-0.67
2023-01-09T01:37:14.547Z,-1.11
2023-01-09T01:38:14.541Z,-0.67
2023-01-09T01:39:14.542Z,-1
2023-01-09T01:40:14.556Z,-0.39
2023-01-09T01:41:14.552Z,-0.39
2023-01-09T01:42:14.548Z,-0.39
2023-01-09T01:43:14.552Z,-0.56
2023-01-09T01:44:14.564Z,-0.39
2023-01-09T01:45:14.547Z,-0.39
2023-01-09T01:46:14.578Z,-0.67
2023-01-09T01:47:14.548Z,-0.67
2023-01-09T01:48:14.553Z,-0.56
2023-01-09T01:49:14.553Z,-0.28
2023-01-09T01:50:14.550Z,-0.39
2023-01-09T01:51:14.546Z,-0.39
2023-01-09T01:52:14.553Z,-0.67
2023-01-09T01:53:14.558Z,-0.56
2023-01-09T01:54:14.555Z,-0.83
2023-01-09T01:55:14.560Z,-0.56
2023-01-09T01:56:14.554Z,-0.56
2023-01-09T01:57:14.550Z,-0.83
2023-01-09T01:58:14.563Z,-0.39
2023-01-09T01:59:14.548Z,-0.67
2023-01-09T02:00:14.588Z,-0.67
2023-01-09T02:01:14.640Z,-0.56
2023-01-09T02:02:14.662Z,-0.67
2023-01-09T02:03:14.558Z,-0.56
2023-01-09T02:04:14.577Z,-0.56
2023-01-09T02:05:14.567Z,-0.39
2023-01-09T02:06:14.600Z,-0.67
2023-01-09T02:07:14.583Z,0
2023-01-09T02:08:14.577Z,-0.17
2023-01-09T02:09:14.581Z,-0.28
2023-01-09T02:10:14.578Z,-0.39
2023-01-09T02:11:14.578Z,-0.28
2023-01-09T02:12:14.575Z,-0.39
2023-01-09T02:13:14.600Z,-0.39
2023-01-09T02:14:14.591Z,-0.39
2023-01-09T02:15:14.575Z,-0.67
2023-01-09T02:16:14.697Z,-0.39
2023-01-09T02:17:14.601Z,-0.83
2023-01-09T02:18:14.573Z,-0.39
2023-01-09T02:19:14.577Z,-0.56
2023-01-09T02:20:14.579Z,-0.28
2023-01-09T02:21:14.585Z,-0.39
2023-01-09T02:22:14.612Z,-0.28
2023-01-09T02:23:14.577Z,-0.28
2023-01-09T02:24:14.580Z,-0.39
2023-01-09T02:25:14.592Z,-0.56
2023-01-09T02:26:14.619Z,-0.67
2023-01-09T02:27:14.587Z,-0.39
2023-01-09T02:28:14.588Z,-0.67
2023-01-09T02:29:14.597Z,-0.28
2023-01-09T02:30:14.597Z,-0.39
2023-01-09T02:31:14.665Z,-0.39
2023-01-09T02:32:14.621Z,-0.67
2023-01-09T02:33:14.591Z,-0.17
2023-01-09T02:34:14.590Z,-0.28
2023-01-09T02:35:14.590Z,-0.39
2023-01-09T02:36:14.592Z,-0.56
2023-01-09T02:37:14.595Z,-0.39
2023-01-09T02:38:14.592Z,-0.39
2023-01-09T02:39:14.605Z,0
2023-01-09T02:40:14.604Z,0
2023-01-09T02:41:14.601Z,-0.56
2023-01-09T02:42:14.597Z,-0.56
2023-01-09T02:43:14.595Z,-0.39
2023-01-09T02:44:14.595Z,-0.67
2023-01-09T02:45:14.599Z,-0.39
2023-01-09T02:46:14.611Z,-0.39
2023-01-09T02:47:14.604Z,-0.28
2023-01-09T02:48:14.627Z,-0.67
2023-01-09T02:49:14.605Z,-0.39
2023-01-09T02:50:14.613Z,-0.67
2023-01-09T02:51:14.618Z,-0.56
2023-01-09T02:52:14.605Z,-0.67
2023-01-09T02:53:14.611Z,-0.39
2023-01-09T02:54:14.623Z,-0.39
2023-01-09T02:55:14.615Z,-0.39
2023-01-09T02:56:14.616Z,-0.39
2023-01-09T02:57:14.624Z,-0.39
2023-01-09T02:58:14.613Z,-0.28
2023-01-09T02:59:14.619Z,-0.39
2023-01-09T03:00:14.610Z,-0.39
2023-01-09T03:01:14.762Z,-0.56
2023-01-09T03:02:14.621Z,-0.39
2023-01-09T03:03:14.639Z,-0.39
2023-01-09T03:04:14.641Z,-0.67
2023-01-09T03:05:14.622Z,-0.83
2023-01-09T03:06:14.628Z,-0.39
2023-01-09T03:07:14.622Z,-0.56
2023-01-09T03:08:14.622Z,-0.28
2023-01-09T03:09:14.628Z,-0.39
2023-01-09T03:10:14.623Z,-0.56
2023-01-09T03:11:14.629Z,-0.39
2023-01-09T03:12:14.643Z,-0.39
2023-01-09T03:13:14.634Z,-0.56
2023-01-09T03:14:14.622Z,-0.39
2023-01-09T03:15:14.632Z,-0.39
2023-01-09T03:16:14.636Z,-0.39
2023-01-09T03:17:14.618Z,-0.83
2023-01-09T03:18:14.641Z,-1
2023-01-09T03:19:14.614Z,-0.39
2023-01-09T03:20:14.649Z,-0.56
2023-01-09T03:21:14.632Z,-1
2023-01-09T03:22:14.638Z,-0.67
2023-01-09T03:23:14.620Z,-0.67
2023-01-09T03:24:14.627Z,-0.56
2023-01-09T03:25:14.628Z,-0.83
2023-01-09T03:26:14.629Z,-0.67
2023-01-09T03:27:14.642Z,-0.67
2023-01-09T03:28:14.632Z,-0.67
2023-01-09T03:29:14.633Z,-1
2023-01-09T03:30:14.643Z,-0.83
2023-01-09T03:31:14.647Z,-1
2023-01-09T03:32:14.636Z,-1
2023-01-09T03:33:14.637Z,-1
2023-01-09T03:34:14.622Z,-0.83
2023-01-09T03:35:14.633Z,-0.83
2023-01-09T03:36:14.654Z,-1
2023-01-09T03:37:14.626Z,-0.83
2023-01-09T03:38:14.628Z,-1
2023-01-09T03:39:14.633Z,-0.83
2023-01-09T03:40:14.645Z,-0.83
2023-01-09T03:41:14.637Z,-0.83
2023-01-09T03:42:14.631Z,-0.67
2023-01-09T03:43:14.635Z,-0.56
2023-01-09T03:44:14.653Z,-0.56
2023-01-09T03:45:14.635Z,-1
2023-01-09T03:46:14.693Z,-0.67
2023-01-09T03:47:14.641Z,-0.56
2023-01-09T03:48:14.638Z,-1
2023-01-09T03:49:14.659Z,-0.28
2023-01-09T03:50:14.655Z,-0.28
2023-01-09T03:51:14.646Z,-0.39
2023-01-09T03:52:14.677Z,-0.56
2023-01-09T03:53:14.649Z,-0.39
2023-01-09T03:54:14.641Z,-0.39
2023-01-09T03:55:15.686Z,-0.56
2023-01-09T03:56:14.630Z,-0.39
2023-01-09T03:57:14.643Z,-0.39
2023-01-09T03:58:14.643Z,-0.67
2023-01-09T03:59:14.640Z,-0.56
2023-01-09T04:00:14.682Z,-0.39
2023-01-09T04:01:14.741Z,-0.56
2023-01-09T04:02:14.847Z,-1
2023-01-09T04:03:14.640Z,-0.56
2023-01-09T04:04:14.739Z,-0.28
2023-01-09T04:05:14.648Z,0
2023-01-09T04:06:14.640Z,-0.17
2023-01-09T04:07:14.639Z,-0.28
2023-01-09T04:08:14.683Z,-0.39
2023-01-09T04:09:14.639Z,-0.67
2023-01-09T04:10:14.636Z,-0.83
2023-01-09T04:11:14.646Z,-0.39
2023-01-09T04:12:14.654Z,-0.39
2023-01-09T04:13:14.650Z,-0.39
2023-01-09T04:14:14.644Z,-0.67
2023-01-09T04:15:14.655Z,-0.67
2023-01-09T04:16:14.695Z,-0.39
2023-01-09T04:17:14.653Z,-0.28
2023-01-09T04:18:14.655Z,-0.67
2023-01-09T04:19:14.666Z,-0.67
2023-01-09T04:20:14.658Z,-0.83
2023-01-09T04:21:14.654Z,-0.39
2023-01-09T04:22:14.661Z,-0.39
2023-01-09T04:23:14.656Z,-0.39
2023-01-09T04:24:14.683Z,-1.11
2023-01-09T04:25:14.649Z,-1.11
2023-01-09T04:26:14.652Z,-0.39
2023-01-09T04:27:14.680Z,-0.56
2023-01-09T04:28:14.667Z,-0.56
2023-01-09T04:29:14.661Z,-0.83
2023-01-09T04:30:14.664Z,-0.56
2023-01-09T04:31:14.697Z,-0.67
2023-01-09T04:32:14.669Z,-0.56
2023-01-09T04:33:14.675Z,-0.39
2023-01-09T04:34:14.661Z,-0.39
2023-01-09T04:35:14.660Z,-0.39
2023-01-09T04:36:14.676Z,-0.39
2023-01-09T04:37:14.669Z,0
2023-01-09T04:38:14.673Z,-0.17
2023-01-09T04:39:14.664Z,-0.17
2023-01-09T04:40:14.676Z,-0.28
2023-01-09T04:41:14.671Z,0
2023-01-09T04:42:14.675Z,-0.17
2023-01-09T04:43:14.673Z,0.17
2023-01-09T04:44:14.665Z,-0.28
2023-01-09T04:45:14.679Z,0.17
2023-01-09T04:46:14.677Z,0.44
2023-01-09T04:47:14.675Z,0.44
2023-01-09T04:48:14.678Z,0
2023-01-09T04:49:14.678Z,-0.17
2023-01-09T04:50:14.666Z,-0.17
2023-01-09T04:51:14.672Z,0
2023-01-09T04:52:14.671Z,0
2023-01-09T04:53:14.668Z,0
2023-01-09T04:54:14.668Z,-0.28
2023-01-09T04:55:14.672Z,0
2023-01-09T04:56:14.707Z,0
2023-01-09T04:57:14.669Z,-0.17
2023-01-09T04:58:14.680Z,0
2023-01-09T04:59:14.688Z,-0.28
2023-01-09T05:00:14.681Z,0
2023-01-09T05:01:14.807Z,-0.56
2023-01-09T05:02:14.777Z,-0.28
2023-01-09T05:03:14.680Z,-0.17
2023-01-09T05:04:14.738Z,-0.17
2023-01-09T05:05:14.676Z,0
2023-01-09T05:06:14.674Z,-0.17
2023-01-09T05:07:14.683Z,0
2023-01-09T05:08:14.676Z,0.44
2023-01-09T05:09:14.696Z,-0.17
2023-01-09T05:10:14.680Z,0.17
2023-01-09T05:11:14.683Z,0.28
2023-01-09T05:12:14.692Z,0.28
2023-01-09T05:13:14.681Z,-0.17
2023-01-09T05:14:14.685Z,0.44
2023-01-09T05:15:14.697Z,0.28
2023-01-09T05:16:14.714Z,0.28
2023-01-09T05:17:14.697Z,0.44
2023-01-09T05:18:14.692Z,0.44
2023-01-09T05:19:14.900Z,0.28
2023-01-09T05:20:14.686Z,0.28
2023-01-09T05:21:14.697Z,-0.17
2023-01-09T05:22:14.692Z,-0.17
2023-01-09T05:23:14.689Z,-0.17
2023-01-09T05:24:14.683Z,-0.17
2023-01-09T05:25:14.687Z,0
2023-01-09T05:26:14.704Z,0
2023-01-09T05:27:14.688Z,-0.17
2023-01-09T05:28:14.718Z,-0.17
2023-01-09T05:29:14.710Z,-0.17
2023-01-09T05:30:16.653Z,0
2023-01-09T05:31:14.739Z,-0.39
2023-01-09T05:32:14.697Z,0
2023-01-09T05:33:14.703Z,0
2023-01-09T05:34:14.687Z,0
2023-01-09T05:35:14.702Z,-0.17
2023-01-09T05:36:14.692Z,-0.28
2023-01-09T05:37:14.693Z,0
2023-01-09T05:38:14.715Z,-0.17
2023-01-09T05:39:14.700Z,0
2023-01-09T05:40:14.687Z,0
2023-01-09T05:41:14.692Z,0
2023-01-09T05:42:14.689Z,0.17
2023-01-09T05:43:14.708Z,-0.28
2023-01-09T05:44:14.736Z,-0.17
2023-01-09T05:45:14.696Z,-0.17
2023-01-09T05:46:14.710Z,-0.17
2023-01-09T05:47:14.713Z,0.17
2023-01-09T05:48:14.691Z,0.44
2023-01-09T05:49:14.701Z,0.28
2023-01-09T05:50:14.703Z,0.44
2023-01-09T05:51:14.696Z,0.61
2023-01-09T05:52:14.703Z,0.44
2023-01-09T05:53:14.702Z,0.28
2023-01-09T05:54:14.715Z,0.28
2023-01-09T05:55:14.731Z,0.17
2023-01-09T05:56:14.708Z,0.28
2023-01-09T05:57:14.700Z,0.44
2023-01-09T05:58:14.706Z,0.44
2023-01-09T05:59:14.717Z,0.28
2023-01-09T06:00:14.732Z,0.44
2023-01-09T06:01:14.745Z,0.17
2023-01-09T06:02:14.792Z,0.44
2023-01-09T06:03:14.781Z,0.28
2023-01-09T06:04:14.712Z,0.17
2023-01-09T06:05:14.714Z,0.28
2023-01-09T06:06:14.717Z,0.44
2023-01-09T06:07:19.557Z,0.44
2023-01-09T06:08:14.742Z,0.28
2023-01-09T06:09:14.731Z,0.28
2023-01-09T06:10:14.707Z,0.28
2023-01-09T06:11:14.722Z,0.44
2023-01-09T06:12:14.708Z,0.72
2023-01-09T06:13:14.724Z,0.44
2023-01-09T06:14:14.715Z,0.61
2023-01-09T06:15:14.720Z,0.44
2023-01-09T06:16:14.837Z,0.44
2023-01-09T06:17:14.723Z,0.28
2023-01-09T06:18:14.725Z,0.17
2023-01-09T06:19:14.711Z,0.28
2023-01-09T06:20:14.715Z,0.17
2023-01-09T06:21:14.712Z,0.17
2023-01-09T06:22:14.720Z,0.44
2023-01-09T06:23:14.717Z,0.17
2023-01-09T06:24:14.723Z,0.17
2023-01-09T06:25:14.707Z,0.44
2023-01-09T06:26:14.719Z,0.28
2023-01-09T06:27:14.729Z,0.28
2023-01-09T06:28:14.712Z,0.17
2023-01-09T06:29:14.705Z,0.28
2023-01-09T06:30:14.712Z,0.17
2023-01-09T06:31:14.780Z,0.44
2023-01-09T06:32:14.738Z,-0.17
2023-01-09T06:33:14.723Z,0
2023-01-09T06:34:14.716Z,0.17
2023-01-09T06:35:14.709Z,0.17
2023-01-09T06:36:14.727Z,0.44
2023-01-09T06:37:14.722Z,0.72
2023-01-09T06:38:14.741Z,0.61
2023-01-09T06:39:14.719Z,0.72
2023-01-09T06:40:14.770Z,0.72
2023-01-09T06:41:14.721Z,0.61
2023-01-09T06:42:14.724Z,0.72
2023-01-09T06:43:14.733Z,0.89
2023-01-09T06:44:14.727Z,0.89
2023-01-09T06:45:14.731Z,0.89
2023-01-09T06:46:14.753Z,0.61
2023-01-09T06:47:14.712Z,0.44
2023-01-09T06:48:14.751Z,0.61
2023-01-09T06:49:14.734Z,0.61
2023-01-09T06:50:14.724Z,0.44
2023-01-09T06:51:14.719Z,0.61
2023-01-09T06:52:14.734Z,0.28
2023-01-09T06:53:14.722Z,0.61
2023-01-09T06:54:14.725Z,0.72
2023-01-09T06:55:14.726Z,0.61
2023-01-09T06:56:14.736Z,0.28
2023-01-09T06:57:14.753Z,0.72
2023-01-09T06:58:14.729Z,0.28
2023-01-09T06:59:14.741Z,0.17
2023-01-09T07:00:14.731Z,0.44
2023-01-09T07:01:14.815Z,0.17
2023-01-09T07:02:14.766Z,0.61
2023-01-09T07:03:14.744Z,0.89
2023-01-09T07:04:14.966Z,0.72
2023-01-09T07:05:14.728Z,0.72
2023-01-09T07:06:14.737Z,0.72
2023-01-09T07:07:14.724Z,0.61
2023-01-09T07:08:14.732Z,0.61
2023-01-09T07:09:14.744Z,0.28
2023-01-09T07:10:14.767Z,0.44
2023-01-09T07:11:14.726Z,0.44
2023-01-09T07:12:14.754Z,0.89
2023-01-09T07:13:14.730Z,0.61
2023-01-09T07:14:14.754Z,0.72
2023-01-09T07:15:14.774Z,0.72
2023-01-09T07:16:14.779Z,0.72
2023-01-09T07:17:14.741Z,0.44
2023-01-09T07:18:14.729Z,0.89
2023-01-09T07:19:14.737Z,1.06
2023-01-09T07:20:14.780Z,1.17
2023-01-09T07:21:14.733Z,0.89
2023-01-09T07:22:14.739Z,0.61
2023-01-09T07:23:14.732Z,0.89
2023-01-09T07:24:14.767Z,2.17
2023-01-09T07:25:14.735Z,2.44
2023-01-09T07:26:14.752Z,2.28
2023-01-09T07:27:14.753Z,2.44
2023-01-09T07:28:14.733Z,2.61
2023-01-09T07:29:14.748Z,2.61
2023-01-09T07:30:14.770Z,2.44
2023-01-09T07:31:14.801Z,2.17
2023-01-09T07:32:14.739Z,2.17
2023-01-09T07:33:14.745Z,2.44
2023-01-09T07:34:14.743Z,2.44
2023-01-09T07:35:14.764Z,2.28
2023-01-09T07:36:14.762Z,2.44
2023-01-09T07:37:14.772Z,2.61
2023-01-09T07:38:14.744Z,2.61
2023-01-09T07:39:14.783Z,2.61
2023-01-09T07:40:14.755Z,2.61
2023-01-09T07:41:14.731Z,2.44
2023-01-09T07:42:14.735Z,2.44
2023-01-09T07:43:14.728Z,2.61
2023-01-09T07:44:14.736Z,2.44
2023-01-09T07:45:14.766Z,2.61
2023-01-09T07:46:14.760Z,2.44
2023-01-09T07:47:14.749Z,2.72
2023-01-09T07:48:14.749Z,2.17
2023-01-09T07:49:14.752Z,2.61
2023-01-09T07:50:14.744Z,2.17
2023-01-09T07:51:14.741Z,2.44
2023-01-09T07:52:14.780Z,2.44
2023-01-09T07:53:14.747Z,2.28
2023-01-09T07:54:14.736Z,2.28
2023-01-09T07:55:16.697Z,2.28
2023-01-09T07:56:14.752Z,1.89
2023-01-09T07:57:14.753Z,2.28
2023-01-09T07:58:14.763Z,2.44
2023-01-09T07:59:14.751Z,2.28
2023-01-09T08:00:14.738Z,2.28
2023-01-09T08:01:14.895Z,2.44
2023-01-09T08:02:14.829Z,2.44
2023-01-09T08:03:14.741Z,2
2023-01-09T08:04:14.746Z,2.17
2023-01-09T08:05:14.798Z,1.89
2023-01-09T08:06:14.773Z,2.28
2023-01-09T08:07:14.782Z,2.44
2023-01-09T08:08:14.794Z,2.17
2023-01-09T08:09:14.750Z,2.28
2023-01-09T08:10:14.752Z,2
2023-01-09T08:11:14.775Z,2.17
2023-01-09T08:12:14.761Z,2.44
2023-01-09T08:13:14.785Z,2
2023-01-09T08:14:14.745Z,2.28
2023-01-09T08:15:14.758Z,1.89
2023-01-09T08:16:14.798Z,2.28
2023-01-09T08:17:14.764Z,1.72
2023-01-09T08:18:14.748Z,2.44
2023-01-09T08:19:14.763Z,2.61
2023-01-09T08:20:14.750Z,2.28
2023-01-09T08:21:14.748Z,2.44
2023-01-09T08:22:14.773Z,2.61
2023-01-09T08:23:14.766Z,2.44
2023-01-09T08:24:14.769Z,2.72
2023-01-09T08:25:14.754Z,3
2023-01-09T08:26:14.773Z,3
2023-01-09T08:27:14.792Z,3
2023-01-09T08:28:14.777Z,2.44
2023-01-09T08:29:14.758Z,2.61
2023-01-09T08:30:14.753Z,2.28
2023-01-09T08:31:14.786Z,2.17
2023-01-09T08:32:14.751Z,2.61
2023-01-09T08:33:14.759Z,2.72
2023-01-09T08:34:14.753Z,2.44
2023-01-09T08:35:14.756Z,2
2023-01-09T08:36:14.846Z,2.44
2023-01-09T08:37:14.768Z,2.28
2023-01-09T08:38:14.752Z,2.44
2023-01-09T08:39:14.757Z,2.44
2023-01-09T08:40:14.776Z,2.61
2023-01-09T08:41:14.758Z,2.44
2023-01-09T08:42:14.757Z,2.72
2023-01-09T08:43:14.759Z,2.61
2023-01-09T08:44:14.751Z,2.44
2023-01-09T08:45:14.758Z,2.44
2023-01-09T08:46:14.795Z,2.17
2023-01-09T08:47:14.778Z,2.61
2023-01-09T08:48:14.763Z,2.28
2023-01-09T08:49:14.785Z,2.44
2023-01-09T08:50:14.772Z,2.61
2023-01-09T08:51:14.787Z,2.44
2023-01-09T08:52:14.770Z,2.61
2023-01-09T08:53:14.777Z,2.61
2023-01-09T08:54:14.757Z,2.61
2023-01-09T08:55:14.753Z,2.44
2023-01-09T08:56:14.787Z,2.61
2023-01-09T08:57:14.776Z,2.61
2023-01-09T08:58:14.765Z,2.44
2023-01-09T08:59:14.772Z,2.61
2023-01-09T09:00:14.769Z,2.44
2023-01-09T09:01:14.812Z,2.17
2023-01-09T09:02:14.776Z,2.61
2023-01-09T09:03:14.777Z,2.61
2023-01-09T09:04:14.768Z,2.61
2023-01-09T09:05:14.775Z,2.72
2023-01-09T09:06:14.788Z,2.61
2023-01-09T09:07:14.791Z,2.61
2023-01-09T09:08:14.774Z,2.61
2023-01-09T09:09:14.774Z,2.28
2023-01-09T09:10:14.781Z,2.61
2023-01-09T09:11:14.787Z,2.72
2023-01-09T09:12:14.801Z,2.61
2023-01-09T09:13:14.777Z,2.61
2023-01-09T09:14:14.776Z,2.44
2023-01-09T09:15:14.787Z,2.17
2023-01-09T09:16:14.827Z,2.44
2023-01-09T09:17:14.820Z,2.44
2023-01-09T09:18:14.804Z,2.61
2023-01-09T09:19:14.788Z,2.61
2023-01-09T09:20:14.802Z,2.72
2023-01-09T09:21:14.785Z,2.44
2023-01-09T09:22:14.792Z,2.61
2023-01-09T09:23:14.801Z,2.61
2023-01-09T09:24:14.805Z,2.72
2023-01-09T09:25:14.799Z,2.61
2023-01-09T09:26:14.818Z,2.61
2023-01-09T09:27:14.805Z,2.61
2023-01-09T09:28:14.834Z,2.72
2023-01-09T09:29:14.789Z,3
2023-01-09T09:30:14.791Z,2.61
2023-01-09T09:31:14.837Z,2.61
2023-01-09T09:32:14.810Z,2.17
2023-01-09T09:33:14.812Z,2.44
2023-01-09T09:34:14.804Z,2.44
2023-01-09T09:35:14.802Z,2.44
2023-01-09T09:36:14.800Z,2.61
2023-01-09T09:37:14.806Z,2.44
2023-01-09T09:38:14.814Z,2.61
2023-01-09T09:39:14.817Z,2.72
2023-01-09T09:40:18.538Z,2.72
2023-01-09T09:41:14.832Z,2.61
2023-01-09T09:42:14.803Z,2.61
2023-01-09T09:43:14.799Z,2.61
2023-01-09T09:44:14.835Z,2.28
2023-01-09T09:45:14.819Z,2.61
2023-01-09T09:46:14.925Z,2.61
2023-01-09T09:47:14.820Z,2.61
2023-01-09T09:48:14.816Z,2.61
2023-01-09T09:49:14.805Z,2.72
2023-01-09T09:50:14.818Z,2.61
2023-01-09T09:51:14.818Z,2.61
2023-01-09T09:52:14.825Z,2.61
2023-01-09T09:53:14.822Z,2.89
2023-01-09T09:54:14.816Z,2.72
2023-01-09T09:55:14.832Z,3.17
2023-01-09T09:56:14.816Z,3
2023-01-09T09:57:14.828Z,3
2023-01-09T09:58:14.822Z,2.89
2023-01-09T09:59:14.818Z,2.61
2023-01-09T10:00:14.857Z,2.89
2023-01-09T10:01:14.853Z,2.61
2023-01-09T10:02:14.873Z,2.61
2023-01-09T10:03:18.325Z,2.44
2023-01-09T10:04:14.851Z,2.61
2023-01-09T10:05:14.813Z,2.61
2023-01-09T10:06:14.825Z,2.44
2023-01-09T10:07:14.832Z,2.17
2023-01-09T10:08:15.923Z,2.72
2023-01-09T10:09:14.837Z,2.72
2023-01-09T10:10:14.837Z,2.44
2023-01-09T10:11:14.846Z,2.61
2023-01-09T10:12:14.841Z,2.61
2023-01-09T10:13:14.832Z,2.89
2023-01-09T10:14:23.481Z,3
2023-01-09T10:15:14.844Z,2.61
2023-01-09T10:16:14.941Z,2.72
2023-01-09T10:17:14.847Z,2.89
2023-01-09T10:18:14.833Z,3
2023-01-09T10:19:14.846Z,3
2023-01-09T10:20:14.841Z,3
2023-01-09T10:21:14.839Z,2.89
2023-01-09T10:22:14.854Z,3.17
2023-01-09T10:23:14.847Z,3
2023-01-09T10:24:14.842Z,3.17
2023-01-09T10:25:14.853Z,3.44
2023-01-09T10:26:14.845Z,3
2023-01-09T10:27:14.852Z,3
2023-01-09T10:28:14.858Z,3.33
2023-01-09T10:29:14.856Z,3
2023-01-09T10:30:14.843Z,2.89
2023-01-09T10:31:14.895Z,3.17
2023-01-09T10:32:14.880Z,3.17
2023-01-09T10:33:14.899Z,3.17
2023-01-09T10:34:14.857Z,3.44
2023-01-09T10:35:14.857Z,3
2023-01-09T10:36:14.866Z,3.56
2023-01-09T10:37:14.875Z,3.44
2023-01-09T10:38:14.868Z,3.44
2023-01-09T10:39:14.851Z,3.56
2023-01-09T10:40:14.863Z,3.44
2023-01-09T10:41:14.876Z,3.83
2023-01-09T10:42:14.851Z,3.56
2023-01-09T10:43:14.864Z,3.17
2023-01-09T10:44:14.866Z,3.56
2023-01-09T10:45:14.857Z,3.72
2023-01-09T10:46:14.898Z,3.83
2023-01-09T10:47:14.887Z,3.72
2023-01-09T10:48:14.881Z,3.83
2023-01-09T10:49:14.864Z,3.44
2023-01-09T10:50:14.863Z,3.44
2023-01-09T10:51:14.863Z,3.33
2023-01-09T10:52:15.784Z,3.56
2023-01-09T10:53:14.859Z,3.56
2023-01-09T10:54:14.887Z,4
2023-01-09T10:55:14.872Z,3.56
2023-01-09T10:56:14.876Z,3.83
2023-01-09T10:57:14.868Z,3.72
2023-01-09T10:58:14.890Z,3.44
2023-01-09T10:59:14.866Z,3.72
2023-01-09T11:00:14.868Z,3.44
2023-01-09T11:01:14.888Z,3
2023-01-09T11:02:14.910Z,3.44
2023-01-09T11:03:14.955Z,3.17
2023-01-09T11:04:14.898Z,3.17
2023-01-09T11:05:14.890Z,3
2023-01-09T11:06:14.874Z,3
2023-01-09T11:07:14.878Z,3
2023-01-09T11:08:14.873Z,3.33
2023-01-09T11:09:14.899Z,3.44
2023-01-09T11:10:14.893Z,3.56
2023-01-09T11:11:14.878Z,3.44
2023-01-09T11:12:14.882Z,3.33
2023-01-09T11:13:14.905Z,3.33
2023-01-09T11:14:14.897Z,3.33
2023-01-09T11:15:14.892Z,3
2023-01-09T11:16:14.963Z,3.44
2023-01-09T11:17:14.889Z,3.44
2023-01-09T11:18:14.901Z,3.44
2023-01-09T11:19:14.897Z,3.44
2023-01-09T11:20:15.012Z,3.44
2023-01-09T11:21:14.886Z,3.44
2023-01-09T11:22:14.889Z,3.33
2023-01-09T11:23:14.893Z,3.44
2023-01-09T11:24:14.882Z,3.56
2023-01-09T11:25:14.904Z,3.44
2023-01-09T11:26:14.880Z,3.44
2023-01-09T11:27:14.922Z,3.44
2023-01-09T11:28:14.915Z,3
2023-01-09T11:29:14.910Z,3.44
2023-01-09T11:30:14.917Z,3.17
2023-01-09T11:31:14.917Z,3.44
2023-01-09T11:32:14.901Z,3.44
2023-01-09T11:33:14.906Z,3.56
2023-01-09T11:34:14.908Z,3.39
2023-01-09T11:35:14.910Z,3
2023-01-09T11:36:14.944Z,3.44
2023-01-09T11:37:14.910Z,3.61
2023-01-09T11:38:14.913Z,3.56
2023-01-09T11:39:14.900Z,3.72
2023-01-09T11:40:14.904Z,3.61
2023-01-09T11:41:14.910Z,3.44
2023-01-09T11:42:14.911Z,3.72
2023-01-09T11:43:14.905Z,3.72
2023-01-09T11:44:14.901Z,3.5
2023-01-09T11:45:14.902Z,3.5
2023-01-09T11:46:14.966Z,3.39
2023-01-09T11:47:14.916Z,3.67
2023-01-09T11:48:14.907Z,3.56
2023-01-09T11:49:14.923Z,3.56
2023-01-09T11:50:14.913Z,3.72
2023-01-09T11:51:14.907Z,3.78
2023-01-09T11:52:14.938Z,3.78
2023-01-09T11:53:14.931Z,3.67
2023-01-09T11:54:14.916Z,3.67
2023-01-09T11:55:14.942Z,3.61
2023-01-09T11:56:14.929Z,3.56
2023-01-09T11:57:14.927Z,3.56
2023-01-09T11:58:14.926Z,3.56
2023-01-09T11:59:14.914Z,3.39
2023-01-09T12:00:14.922Z,3.28
2023-01-09T12:01:14.912Z,3.28
2023-01-09T12:02:14.933Z,3.28
2023-01-09T12:03:14.937Z,3.28
2023-01-09T12:04:14.927Z,3.28
2023-01-09T12:05:14.944Z,3.11
2023-01-09T12:06:14.923Z,3.11
2023-01-09T12:07:14.933Z,3.39
2023-01-09T12:08:14.959Z,3.28
2023-01-09T12:09:14.929Z,3.39
2023-01-09T12:10:14.939Z,3.67
2023-01-09T12:11:14.938Z,3.67
2023-01-09T12:12:16.419Z,3.67
2023-01-09T12:13:14.935Z,3.78
2023-01-09T12:14:14.935Z,3.56
2023-01-09T12:15:14.928Z,3.67
2023-01-09T12:16:14.991Z,3.67
2023-01-09T12:17:14.942Z,3.67
2023-01-09T12:18:14.928Z,3.67
2023-01-09T12:19:14.941Z,3.78
2023-01-09T12:20:14.929Z,3.78
2023-01-09T12:21:16.469Z,3.78
2023-01-09T12:22:14.934Z,3.78
2023-01-09T12:23:14.947Z,3.94
2023-01-09T12:24:14.981Z,3.67
2023-01-09T12:25:14.946Z,3.94
2023-01-09T12:26:14.943Z,3.67
2023-01-09T12:27:17.179Z,3.94
2023-01-09T12:28:14.964Z,3.67
2023-01-09T12:29:14.955Z,3.56
2023-01-09T12:30:14.969Z,3.39
2023-01-09T12:31:14.973Z,3.67
2023-01-09T12:32:14.937Z,3.67
2023-01-09T12:33:14.937Z,3.67
2023-01-09T12:34:14.959Z,3.67
2023-01-09T12:35:14.947Z,3.39
2023-01-09T12:36:14.948Z,3.56
2023-01-09T12:37:14.979Z,3.56
2023-01-09T12:38:14.952Z,3.67
2023-01-09T12:39:14.949Z,3.67
2023-01-09T12:40:15.107Z,3.67
2023-01-09T12:41:14.945Z,3.67
2023-01-09T12:42:14.953Z,3.67
2023-01-09T12:43:14.941Z,3.67
2023-01-09T12:44:18.104Z,3.56
2023-01-09T12:45:14.948Z,3.56
2023-01-09T12:46:15.034Z,3.28
2023-01-09T12:47:14.954Z,3.56
2023-01-09T12:48:14.961Z,3.39
2023-01-09T12:49:14.948Z,3.28
2023-01-09T12:50:14.978Z,3.56
2023-01-09T12:51:14.959Z,3.28
2023-01-09T12:52:14.956Z,3.28
2023-01-09T12:53:14.964Z,3.28
2023-01-09T12:54:14.960Z,3.11
2023-01-09T12:55:14.972Z,3.11
2023-01-09T12:56:15.200Z,3.11
2023-01-09T12:57:14.958Z,3.28
2023-01-09T12:58:14.967Z,3.39
2023-01-09T12:59:14.962Z,3.28
2023-01-09T13:00:14.979Z,3.39
2023-01-09T13:01:15.030Z,3.67
2023-01-09T13:02:14.986Z,3.56
2023-01-09T13:03:14.960Z,3.67
2023-01-09T13:04:14.983Z,3.67
2023-01-09T13:05:14.976Z,3.28
2023-01-09T13:06:14.965Z,3.67
2023-01-09T13:07:14.970Z,3.67
2023-01-09T13:08:14.964Z,3.56
2023-01-09T13:09:14.962Z,3.56
2023-01-09T13:10:14.964Z,3.67
2023-01-09T13:11:20.183Z,3.28
2023-01-09T13:12:14.986Z,3.67
2023-01-09T13:13:14.974Z,3.56
2023-01-09T13:14:14.996Z,3.56
2023-01-09T13:15:14.967Z,3.56
2023-01-09T13:16:15.014Z,3.39